Schubert, Pennsylvania
Current Conditions -  °F | °C
As of 3:58 PM on Friday 19 Dec 2014 (Local Time) from KMUI Reporting Station
Clear Clear  
Wind Chill: 29°   Ceiling: Unl
Heat Index: 37°   Visibility: 10mi
Dew Point: 20°   Wind: 10mph
Humidity: 52%   Direction: 280°W
Pressure: 30.12"   Gusts: 17mph
Location:  40.4893°N, 76.2947°W
Report Text: KMUI 192058Z AUTO 28009G15KT 260V320 10SM CLR 03/M06 A3012 RMK AO2 SLP207 T00261065 53009
Loading
Personal Weather Stations






























Interactive Weather Map New forecast layout! Learn more

10-Day Weather Forecast

Advertisements
Track Severe Weather on mobile